createdAt,value
2018-03-01T00:01:29.834Z,30.17
2018-03-01T00:03:59.706Z,31.67
2018-03-01T00:06:28.767Z,29.90
2018-03-01T00:08:57.832Z,30.43
2018-03-01T00:11:26.925Z,30.80
2018-03-01T00:13:56.796Z,32.63
2018-03-01T00:16:25.847Z,36.57
2018-03-01T00:18:55.690Z,29.90
2018-03-01T00:21:24.758Z,26.53
2018-03-01T00:23:54.607Z,28.10
2018-03-01T00:26:23.693Z,35.50
2018-03-01T00:28:52.785Z,27.23
2018-03-01T00:31:21.869Z,30.50
2018-03-01T00:33:51.011Z,31.33
2018-03-01T00:36:20.232Z,24.53
2018-03-01T00:38:49.326Z,28.10
2018-03-01T00:41:18.402Z,27.50
2018-03-01T00:43:47.508Z,27.87
2018-03-01T00:46:16.617Z,32.60
2018-03-01T00:48:45.726Z,31.10
2018-03-01T00:51:16.504Z,28.90
2018-03-01T00:53:45.580Z,29.77
2018-03-01T00:56:14.671Z,28.17
2018-03-01T00:58:43.751Z,28.30
2018-03-01T01:01:12.851Z,34.10
2018-03-01T01:03:42.674Z,30.07
2018-03-01T01:06:11.782Z,31.07
2018-03-01T01:08:40.843Z,29.43
2018-03-01T01:11:09.953Z,29.70
2018-03-01T01:13:39.054Z,29.40
2018-03-01T01:16:08.131Z,27.00
2018-03-01T01:18:37.969Z,30.20
2018-03-01T01:21:07.026Z,32.67
2018-03-01T01:23:36.857Z,33.70
2018-03-01T01:26:05.915Z,27.50
2018-03-01T01:28:34.990Z,28.30
2018-03-01T01:31:04.079Z,25.57
2018-03-01T01:33:33.152Z,27.10
2018-03-01T01:36:02.226Z,25.30
2018-03-01T01:38:31.280Z,26.70
2018-03-01T01:41:00.368Z,23.83
2018-03-01T01:43:29.467Z,27.33
2018-03-01T01:45:58.530Z,25.83
2018-03-01T01:48:27.668Z,32.37
2018-03-01T01:51:04.414Z,28.37
2018-03-01T01:53:34.231Z,27.27
2018-03-01T01:56:03.313Z,28.80
2018-03-01T01:58:32.367Z,26.27
2018-03-01T02:01:02.222Z,25.90
2018-03-01T02:03:31.301Z,32.77
2018-03-01T02:06:00.351Z,27.97
2018-03-01T02:08:30.203Z,29.70
2018-03-01T02:10:59.254Z,31.70
2018-03-01T02:13:29.104Z,37.60
2018-03-01T02:15:58.173Z,29.63
2018-03-01T02:18:27.254Z,31.40
2018-03-01T02:20:56.300Z,31.70
2018-03-01T02:23:25.398Z,27.83
2018-03-01T02:25:54.472Z,31.60
2018-03-01T02:28:24.416Z,27.77
2018-03-01T02:30:53.470Z,27.77
2018-03-01T02:33:22.552Z,24.57
2018-03-01T02:35:51.613Z,28.37
2018-03-01T02:38:20.705Z,29.63
2018-03-01T02:40:49.773Z,29.20
2018-03-01T02:43:18.843Z,32.93
2018-03-01T02:45:47.979Z,34.87
2018-03-01T02:48:17.033Z,38.43
2018-03-01T02:50:46.890Z,33.30
2018-03-01T02:53:15.944Z,32.17
2018-03-01T02:55:45.024Z,27.53
2018-03-01T02:58:14.865Z,33.70
2018-03-01T03:00:43.939Z,29.47
2018-03-01T03:03:13.788Z,33.90
2018-03-01T03:05:42.868Z,28.70
2018-03-01T03:08:11.954Z,27.83
2018-03-01T03:10:41.068Z,31.90
2018-03-01T03:13:10.868Z,29.40
2018-03-01T03:15:39.926Z,27.97
2018-03-01T03:18:09.011Z,31.57
2018-03-01T03:20:38.073Z,28.27
2018-03-01T03:23:07.153Z,33.37
2018-03-01T03:25:36.262Z,30.50
2018-03-01T03:28:05.307Z,32.23
2018-03-01T03:30:34.539Z,32.87
2018-03-01T03:33:03.596Z,33.57
2018-03-01T03:35:32.655Z,36.60
2018-03-01T03:38:01.772Z,32.80
2018-03-01T03:40:30.825Z,35.83
2018-03-01T03:42:59.891Z,29.77
2018-03-01T03:45:29.747Z,33.27
2018-03-01T03:47:58.795Z,30.13
2018-03-01T03:50:27.859Z,29.00
2018-03-01T03:52:56.990Z,31.03
2018-03-01T03:55:26.811Z,35.57
2018-03-01T03:57:55.876Z,30.47
2018-03-01T04:00:25.000Z,32.27
2018-03-01T04:02:54.059Z,37.77
2018-03-01T04:05:23.119Z,39.17
2018-03-01T04:07:52.248Z,38.43
2018-03-01T04:10:21.307Z,33.83
2018-03-01T04:12:51.144Z,31.20
2018-03-01T04:15:20.266Z,24.97
2018-03-01T04:17:50.183Z,31.70
2018-03-01T04:20:19.232Z,30.30
2018-03-01T04:22:48.451Z,34.70
2018-03-01T04:25:17.510Z,38.90
2018-03-01T04:27:46.570Z,39.33
2018-03-01T04:30:16.423Z,33.03
2018-03-01T04:32:45.489Z,28.17
2018-03-01T04:35:14.583Z,37.07
2018-03-01T04:37:43.658Z,28.03
2018-03-01T04:40:12.732Z,32.90
2018-03-01T04:42:41.839Z,30.20
2018-03-01T04:45:11.294Z,29.37
2018-03-01T04:47:40.405Z,34.73
2018-03-01T04:50:09.495Z,35.10
2018-03-01T04:52:38.592Z,31.33
2018-03-01T04:55:07.628Z,35.20
2018-03-01T04:57:37.502Z,32.40
2018-03-01T05:00:06.616Z,34.10
2018-03-01T05:02:35.675Z,32.47
2018-03-01T05:05:04.818Z,36.13
2018-03-01T05:07:33.908Z,30.93
2018-03-01T05:10:02.967Z,33.17
2018-03-01T05:12:32.071Z,34.23
2018-03-01T05:15:01.156Z,31.40
2018-03-01T05:17:30.988Z,40.63
2018-03-01T05:20:01.073Z,41.83
2018-03-01T05:22:30.159Z,41.57
2018-03-01T05:24:59.261Z,38.87
2018-03-01T05:27:28.337Z,32.30
2018-03-01T05:29:57.408Z,55.93
2018-03-01T05:32:26.490Z,70.73
2018-03-01T05:34:55.551Z,48.43
2018-03-01T05:37:24.670Z,63.30
2018-03-01T05:39:53.716Z,50.73
2018-03-01T05:42:22.808Z,32.03
2018-03-01T05:44:51.919Z,31.03
2018-03-01T05:47:20.974Z,33.60
2018-03-01T05:49:50.834Z,28.47
2018-03-01T05:52:19.894Z,32.70
2018-03-01T05:54:49.704Z,34.77
2018-03-01T05:57:19.590Z,37.10
2018-03-01T05:59:49.428Z,33.13
2018-03-01T06:02:19.290Z,44.17
2018-03-01T06:04:48.420Z,36.10
2018-03-01T06:07:17.488Z,33.63
2018-03-01T06:09:46.539Z,34.10
2018-03-01T06:12:15.609Z,36.60
2018-03-01T06:14:44.711Z,33.37
2018-03-01T06:17:14.560Z,39.20
2018-03-01T06:19:43.646Z,45.90
2018-03-01T06:22:12.703Z,31.33
2018-03-01T06:24:41.852Z,32.93
2018-03-01T06:27:10.929Z,38.70
2018-03-01T06:29:40.232Z,30.07
2018-03-01T06:32:09.307Z,29.87
2018-03-01T06:34:39.131Z,37.37
2018-03-01T06:37:08.299Z,31.43
2018-03-01T06:39:37.346Z,31.70
2018-03-01T06:42:06.492Z,32.63
2018-03-01T06:44:35.621Z,40.43
2018-03-01T06:47:04.689Z,31.50
2018-03-01T06:49:34.526Z,28.10
2018-03-01T06:52:03.832Z,103.17
2018-03-01T06:54:32.931Z,56.53
2018-03-01T06:57:01.994Z,38.10
2018-03-01T06:59:31.897Z,32.23
2018-03-01T07:02:00.978Z,30.50
2018-03-01T07:04:30.046Z,34.10
2018-03-01T07:06:59.195Z,32.10
2018-03-01T07:09:29.045Z,31.77
2018-03-01T07:11:58.124Z,40.03
2018-03-01T07:14:27.316Z,33.70
2018-03-01T07:16:56.431Z,37.80
2018-03-01T07:19:26.223Z,34.87
2018-03-01T07:21:55.307Z,33.20
2018-03-01T07:24:25.120Z,33.70
2018-03-01T07:26:54.992Z,36.07
2018-03-01T07:29:24.051Z,40.40
2018-03-01T07:31:53.180Z,35.60
2018-03-01T07:34:22.449Z,36.03
2018-03-01T07:36:51.552Z,35.53
2018-03-01T07:39:20.620Z,34.43
2018-03-01T07:41:49.745Z,32.97
2018-03-01T07:44:18.799Z,44.10
2018-03-01T07:46:48.641Z,31.97
2018-03-01T07:49:17.762Z,35.50
2018-03-01T07:51:46.815Z,34.70
2018-03-01T07:54:15.872Z,40.70
2018-03-01T07:56:45.425Z,35.80
2018-03-01T07:59:14.477Z,37.33
2018-03-01T08:01:43.535Z,39.10
2018-03-01T08:04:12.669Z,42.73
2018-03-01T08:06:41.723Z,35.20
2018-03-01T08:09:10.776Z,38.60
2018-03-01T08:11:39.895Z,35.67
2018-03-01T08:14:08.943Z,37.00
2018-03-01T08:16:38.003Z,33.40
2018-03-01T08:19:08.024Z,34.17
2018-03-01T08:21:37.587Z,39.20
2018-03-01T08:24:07.447Z,37.13
2018-03-01T08:26:36.567Z,35.20
2018-03-01T08:29:05.631Z,39.53
2018-03-01T08:31:34.697Z,32.90
2018-03-01T08:34:04.965Z,32.90
2018-03-01T08:36:34.074Z,54.60
2018-03-01T08:39:03.131Z,38.77
2018-03-01T08:41:32.278Z,37.53
2018-03-01T08:44:01.324Z,54.50
2018-03-01T08:46:30.388Z,36.83
2018-03-01T08:48:59.536Z,38.60
2018-03-01T08:51:28.577Z,35.53
2018-03-01T08:53:57.673Z,29.93
2018-03-01T08:56:26.904Z,90.73
2018-03-01T08:58:55.959Z,43.20
2018-03-01T09:01:25.832Z,40.70
2018-03-01T09:03:54.885Z,37.53
2018-03-01T09:06:23.928Z,39.47
2018-03-01T09:08:52.985Z,33.07
2018-03-01T09:11:22.073Z,31.50
2018-03-01T09:13:51.248Z,34.80
2018-03-01T09:16:20.257Z,37.20
2018-03-01T09:18:49.310Z,39.20
2018-03-01T09:21:18.393Z,33.40
2018-03-01T09:23:47.465Z,42.13
2018-03-01T09:26:16.514Z,41.23
2018-03-01T09:28:45.603Z,44.97
2018-03-01T09:31:15.427Z,47.00
2018-03-01T09:33:44.554Z,41.57
2018-03-01T09:36:13.647Z,42.10
2018-03-01T09:38:42.703Z,48.70
2018-03-01T09:41:12.536Z,47.67
2018-03-01T09:43:41.623Z,35.30
2018-03-01T09:46:11.851Z,44.60
2018-03-01T09:48:40.912Z,41.57
2018-03-01T09:51:15.562Z,39.80
2018-03-01T09:53:44.651Z,45.47
2018-03-01T09:56:13.753Z,45.43
2018-03-01T09:58:43.019Z,40.83
2018-03-01T10:01:12.085Z,58.20
2018-03-01T10:03:41.136Z,47.03
2018-03-01T10:06:10.219Z,45.60
2018-03-01T10:08:40.038Z,43.57
2018-03-01T10:11:09.260Z,44.80
2018-03-01T10:13:38.331Z,47.33
2018-03-01T10:16:08.155Z,37.70
2018-03-01T10:18:37.243Z,40.43
2018-03-01T10:21:06.295Z,36.23
2018-03-01T10:23:35.399Z,39.63
2018-03-01T10:26:04.485Z,38.43
2018-03-01T10:28:39.461Z,38.27
2018-03-01T10:31:08.512Z,34.27
2018-03-01T10:33:43.126Z,39.40
2018-03-01T10:36:12.181Z,37.80
2018-03-01T10:38:41.270Z,39.33
2018-03-01T10:41:11.123Z,36.53
2018-03-01T10:43:40.203Z,35.70
2018-03-01T10:46:09.286Z,39.50
2018-03-01T10:48:38.355Z,32.80
2018-03-01T10:51:08.258Z,36.03
2018-03-01T10:53:37.300Z,34.13
2018-03-01T10:56:06.380Z,31.10
2018-03-01T10:58:35.433Z,29.10
2018-03-01T11:01:19.126Z,27.37
2018-03-01T11:03:48.177Z,32.60
2018-03-01T11:06:18.001Z,28.03
2018-03-01T11:08:47.101Z,28.40
2018-03-01T11:11:16.157Z,28.80
2018-03-01T11:13:45.434Z,31.67
2018-03-01T11:16:14.552Z,23.23
2018-03-01T11:18:43.609Z,25.97
2018-03-01T11:21:12.680Z,18.83
2018-03-01T11:23:41.747Z,20.83
2018-03-01T11:26:11.582Z,24.40
2018-03-01T11:28:40.678Z,22.50
2018-03-01T11:31:09.749Z,23.93
2018-03-01T11:33:38.842Z,22.70
2018-03-01T11:36:07.902Z,34.17
2018-03-01T11:38:36.975Z,26.57
2018-03-01T11:41:06.061Z,27.07
2018-03-01T11:43:35.138Z,21.60
2018-03-01T11:46:04.992Z,19.87
2018-03-01T11:48:34.070Z,25.17
2018-03-01T11:51:03.147Z,21.00
2018-03-01T11:53:32.215Z,23.67
2018-03-01T11:56:01.388Z,24.10
2018-03-01T11:58:30.450Z,26.33
2018-03-01T12:00:59.505Z,24.67
2018-03-01T12:03:28.581Z,27.00
2018-03-01T12:05:57.687Z,28.60
2018-03-01T12:08:26.794Z,24.90
2018-03-01T12:10:56.615Z,28.30
2018-03-01T12:13:26.479Z,23.73
2018-03-01T12:15:55.526Z,23.60
2018-03-01T12:18:25.518Z,33.73
2018-03-01T12:20:54.558Z,26.87
2018-03-01T12:23:23.615Z,27.43
2018-03-01T12:25:52.728Z,27.67
2018-03-01T12:28:22.531Z,22.20
2018-03-01T12:30:52.403Z,24.40
2018-03-01T12:33:21.472Z,27.20
2018-03-01T12:35:50.543Z,27.33
2018-03-01T12:38:19.630Z,25.87
2018-03-01T12:40:49.491Z,26.33
2018-03-01T12:43:18.527Z,25.87
2018-03-01T12:45:48.364Z,24.07
2018-03-01T12:48:17.439Z,22.23
2018-03-01T12:50:47.265Z,26.37
2018-03-01T12:53:16.352Z,24.83
2018-03-01T12:55:46.196Z,20.17
2018-03-01T12:58:15.276Z,26.73
2018-03-01T13:00:44.333Z,29.53
2018-03-01T13:03:13.417Z,21.23
2018-03-01T13:05:42.511Z,22.87
2018-03-01T13:08:11.599Z,22.03
2018-03-01T13:10:43.046Z,25.00
2018-03-01T13:13:12.106Z,24.70
2018-03-01T13:15:41.207Z,22.63
2018-03-01T13:18:10.265Z,24.33
2018-03-01T13:20:40.093Z,27.80
2018-03-01T13:23:09.976Z,24.27
2018-03-01T13:25:39.046Z,21.80
2018-03-01T13:28:08.125Z,21.37
2018-03-01T13:30:38.156Z,25.33
2018-03-01T13:33:19.821Z,19.90
2018-03-01T13:35:48.958Z,22.23
2018-03-01T13:38:18.009Z,21.07
2018-03-01T13:40:47.094Z,24.13
2018-03-01T13:43:16.471Z,22.30
2018-03-01T13:45:46.503Z,26.20
2018-03-01T13:48:16.324Z,24.73
2018-03-01T13:50:45.419Z,25.33
2018-03-01T13:53:14.486Z,23.90
2018-03-01T13:55:43.539Z,25.57
2018-03-01T13:58:12.643Z,25.50
2018-03-01T14:00:41.747Z,23.80
2018-03-01T14:03:10.815Z,23.03
2018-03-01T14:05:40.718Z,26.43
2018-03-01T14:08:09.779Z,24.43
2018-03-01T14:10:39.646Z,21.30
2018-03-01T14:13:14.303Z,21.47
2018-03-01T14:15:43.391Z,23.20
2018-03-01T14:18:12.444Z,23.10
2018-03-01T14:34:04.524Z,22.60
2018-03-01T14:36:33.589Z,23.27
2018-03-01T14:39:02.675Z,25.90
2018-03-01T14:41:31.781Z,23.63
2018-03-01T14:44:00.867Z,23.00
2018-03-01T14:46:29.949Z,22.50
2018-03-01T14:48:59.020Z,22.90
2018-03-01T14:51:28.077Z,23.83
2018-03-01T14:53:57.149Z,22.97
2018-03-01T14:56:26.216Z,25.77
2018-03-01T14:58:55.297Z,20.90
2018-03-01T15:01:24.395Z,23.07
2018-03-01T15:03:53.459Z,23.77
2018-03-01T15:06:22.539Z,22.50
2018-03-01T15:08:51.672Z,27.77
2018-03-01T15:11:21.489Z,27.93
2018-03-01T15:13:50.657Z,22.20
2018-03-01T15:16:20.508Z,23.30
2018-03-01T15:18:49.575Z,26.90
2018-03-01T15:21:18.655Z,26.63
2018-03-01T15:23:48.186Z,31.43
2018-03-01T15:26:18.005Z,27.20
2018-03-01T15:28:47.069Z,28.10
2018-03-01T15:31:16.334Z,27.10
2018-03-01T15:33:45.460Z,25.43
2018-03-01T15:36:14.476Z,22.93
2018-03-01T15:38:44.686Z,29.20
2018-03-01T15:41:13.740Z,21.53
2018-03-01T15:43:42.792Z,22.30
2018-03-01T15:46:12.135Z,26.73
2018-03-01T15:48:41.193Z,24.70
2018-03-01T15:51:10.270Z,23.50
2018-03-01T15:53:40.219Z,26.80
2018-03-01T15:56:09.315Z,22.13
2018-03-01T15:58:38.375Z,21.37
2018-03-01T16:01:08.259Z,22.50
2018-03-01T16:03:37.301Z,25.67
2018-03-01T16:09:26.389Z,22.47
2018-03-01T16:11:55.480Z,28.27
2018-03-01T16:14:24.547Z,26.40
2018-03-01T16:16:54.375Z,28.33
2018-03-01T16:19:23.460Z,25.97
2018-03-01T16:21:53.312Z,25.37
2018-03-01T16:24:22.422Z,24.90
2018-03-01T16:26:51.466Z,23.00
2018-03-01T16:29:21.311Z,28.97
2018-03-01T16:31:51.002Z,26.80
2018-03-01T16:34:20.083Z,25.73
2018-03-01T16:36:49.903Z,23.03
2018-03-01T16:39:19.004Z,26.77
2018-03-01T16:41:48.063Z,30.40
2018-03-01T16:44:17.168Z,30.10
2018-03-01T16:46:46.994Z,73.37
2018-03-01T16:49:16.936Z,36.43
2018-03-01T16:51:46.005Z,42.50
2018-03-01T16:54:15.861Z,44.77
2018-03-01T16:56:45.708Z,29.37
2018-03-01T16:59:14.770Z,23.80
2018-03-01T17:01:43.881Z,28.80
2018-03-01T17:04:12.980Z,28.13
2018-03-01T17:06:42.082Z,32.67
2018-03-01T17:09:11.097Z,28.13
2018-03-01T17:11:40.974Z,32.83
2018-03-01T17:14:10.047Z,24.47
2018-03-01T17:16:39.099Z,28.80
2018-03-01T17:19:08.964Z,26.37
2018-03-01T17:21:38.041Z,31.20
2018-03-01T17:24:07.107Z,26.90
2018-03-01T17:26:36.170Z,28.53
2018-03-01T17:29:05.263Z,33.00
2018-03-01T17:31:34.347Z,38.47
2018-03-01T17:34:03.395Z,46.70
2018-03-01T17:36:32.501Z,30.17
2018-03-01T17:39:01.565Z,31.50
2018-03-01T17:41:31.529Z,28.10
2018-03-01T17:44:00.580Z,35.53
2018-03-01T17:46:30.417Z,29.70
2018-03-01T17:48:59.507Z,29.17
2018-03-01T17:51:28.573Z,32.33
2018-03-01T17:53:58.453Z,29.10
2018-03-01T17:56:27.563Z,27.47
2018-03-01T17:58:56.691Z,29.67
2018-03-01T18:01:26.550Z,32.13
2018-03-01T18:03:55.601Z,33.20
2018-03-01T18:06:25.476Z,32.63
2018-03-01T18:08:54.578Z,41.13
2018-03-01T18:11:23.683Z,63.40
2018-03-01T18:13:52.788Z,59.43
2018-03-01T18:16:21.899Z,64.70
2018-03-01T18:18:50.986Z,67.20
2018-03-01T18:21:20.807Z,56.87
2018-03-01T18:23:49.897Z,57.27
2018-03-01T18:26:18.994Z,54.03
2018-03-01T18:28:48.074Z,53.50
2018-03-01T18:31:17.171Z,55.93
2018-03-01T18:33:47.026Z,55.33
2018-03-01T18:36:16.101Z,57.97
2018-03-01T18:38:45.172Z,50.37
2018-03-01T18:41:15.000Z,60.97
2018-03-01T18:43:44.908Z,60.47
2018-03-01T18:46:15.735Z,57.40
2018-03-01T18:48:45.601Z,59.67
2018-03-01T18:51:14.732Z,50.63
2018-03-01T18:53:43.825Z,57.27
2018-03-01T18:56:12.917Z,53.97
2018-03-01T18:58:42.064Z,58.37
2018-03-01T19:01:11.128Z,59.27
2018-03-01T19:03:40.981Z,56.80
2018-03-01T19:06:10.022Z,51.07
2018-03-01T19:08:39.909Z,45.93
2018-03-01T19:11:08.988Z,48.00
2018-03-01T19:13:38.060Z,51.93
2018-03-01T19:16:07.145Z,48.90
2018-03-01T19:18:36.237Z,45.37
2018-03-01T19:21:05.342Z,43.43
2018-03-01T19:23:34.427Z,42.93
2018-03-01T19:26:03.531Z,52.93
2018-03-01T19:28:32.608Z,53.50
2018-03-01T19:31:02.568Z,50.77
2018-03-01T19:33:31.600Z,52.33
2018-03-01T19:36:01.504Z,53.90
2018-03-01T19:38:30.622Z,51.57
2018-03-01T19:40:59.709Z,48.77
2018-03-01T19:43:28.790Z,54.40
2018-03-01T19:45:57.876Z,48.17
2018-03-01T19:48:27.800Z,43.60
2018-03-01T19:50:56.924Z,52.53
2018-03-01T19:53:26.742Z,40.50
2018-03-01T19:55:55.846Z,50.90
2018-03-01T19:58:24.908Z,44.47
2018-03-01T20:00:54.031Z,78.23
2018-03-01T20:03:23.129Z,56.60
2018-03-01T20:05:52.197Z,55.23
2018-03-01T20:08:22.876Z,50.00
2018-03-01T20:10:52.034Z,55.87
2018-03-01T20:13:21.226Z,55.60
2018-03-01T20:15:50.419Z,52.50
2018-03-01T20:18:20.250Z,55.03
2018-03-01T20:20:50.106Z,58.97
2018-03-01T20:23:19.167Z,49.60
2018-03-01T20:25:48.239Z,53.07
2018-03-01T20:28:18.116Z,44.00
2018-03-01T20:30:47.176Z,47.83
2018-03-01T20:33:16.229Z,43.30
2018-03-01T20:35:45.664Z,47.87
2018-03-01T20:38:14.683Z,44.60
2018-03-01T20:40:43.850Z,44.83
2018-03-01T20:43:13.735Z,40.00
2018-03-01T20:45:42.806Z,50.90
2018-03-01T20:48:11.870Z,47.37
2018-03-01T20:50:41.023Z,37.67
2018-03-01T20:53:10.100Z,47.27
2018-03-01T20:55:39.158Z,48.60
2018-03-01T20:58:08.560Z,44.33
2018-03-01T21:00:37.607Z,49.60
2018-03-01T21:03:06.728Z,49.63
2018-03-01T21:05:35.780Z,50.97
2018-03-01T21:08:04.864Z,50.13
2018-03-01T21:10:33.931Z,53.80
2018-03-01T21:13:03.027Z,73.23
2018-03-01T21:15:32.201Z,52.63
2018-03-01T21:18:02.049Z,45.03
2018-03-01T21:20:31.126Z,48.83
2018-03-01T21:23:00.228Z,50.00
2018-03-01T21:25:29.292Z,51.70
2018-03-01T21:27:59.163Z,48.37
2018-03-01T21:30:28.242Z,43.90
2018-03-01T21:32:57.314Z,46.47
2018-03-01T21:35:27.165Z,48.60
2018-03-01T21:37:56.219Z,49.10
2018-03-01T21:40:25.316Z,50.50
2018-03-01T21:42:54.376Z,46.70
2018-03-01T21:45:23.505Z,48.67
2018-03-01T21:47:55.104Z,47.97
2018-03-01T21:50:24.195Z,46.33
2018-03-01T21:52:53.264Z,55.50
2018-03-01T21:55:22.366Z,56.97
2018-03-01T21:57:51.426Z,60.47
2018-03-01T22:00:20.519Z,61.27
2018-03-01T22:02:50.362Z,61.37
2018-03-01T22:05:19.446Z,60.97
2018-03-01T22:07:48.535Z,54.73
2018-03-01T22:10:17.583Z,55.50
2018-03-01T22:12:46.718Z,44.97
2018-03-01T22:15:18.455Z,50.17
2018-03-01T22:17:48.576Z,53.50
2018-03-01T22:20:18.415Z,45.90
2018-03-01T22:22:47.465Z,52.40
2018-03-01T22:25:16.599Z,49.33
2018-03-01T22:27:45.917Z,50.40
2018-03-01T22:30:14.971Z,53.93
2018-03-01T22:32:48.076Z,56.07
2018-03-01T22:35:17.143Z,52.60
2018-03-01T22:37:46.447Z,59.10
2018-03-01T22:40:15.535Z,60.73
2018-03-01T22:42:44.598Z,60.57
2018-03-01T22:45:13.724Z,63.20
2018-03-01T22:47:42.784Z,86.60
2018-03-01T22:50:11.939Z,95.70
2018-03-01T22:52:42.004Z,89.77
2018-03-01T22:55:11.132Z,76.53
2018-03-01T22:57:41.664Z,85.83
2018-03-01T23:00:10.783Z,60.90
2018-03-01T23:02:40.661Z,56.03
2018-03-01T23:05:10.645Z,61.67
2018-03-01T23:07:39.715Z,58.00
2018-03-01T23:10:08.785Z,67.83
2018-03-01T23:12:37.892Z,70.33
2018-03-01T23:15:06.943Z,66.97
2018-03-01T23:17:36.157Z,58.97
2018-03-01T23:20:05.206Z,65.43
2018-03-01T23:22:34.267Z,93.17
2018-03-01T23:25:04.124Z,81.87
2018-03-01T23:27:33.214Z,81.30
2018-03-01T23:30:02.296Z,70.30
2018-03-01T23:32:31.356Z,69.03
2018-03-01T23:35:00.431Z,67.30
2018-03-01T23:37:29.512Z,66.50
2018-03-01T23:39:58.579Z,63.30
2018-03-01T23:42:27.660Z,62.83
2018-03-01T23:44:56.723Z,75.53
2018-03-01T23:47:25.820Z,69.77
2018-03-01T23:49:54.872Z,64.33
2018-03-01T23:52:23.937Z,55.47
2018-03-01T23:54:53.030Z,51.10
2018-03-01T23:57:22.847Z,46.63
2018-03-01T23:59:51.898Z,50.00
